createdAt,value
2018-04-14T00:01:53.242Z,96585.95
2018-04-14T00:04:19.136Z,96592.95
2018-04-14T00:06:46.861Z,96590.25
2018-04-14T00:09:12.827Z,96593.33
2018-04-14T00:11:42.691Z,96596.70
2018-04-14T00:14:08.598Z,96604.17
2018-04-14T00:16:35.616Z,96602.74
2018-04-14T00:19:01.532Z,96604.34
2018-04-14T00:21:31.355Z,96599.39
2018-04-14T00:23:57.876Z,96615.84
2018-04-14T00:26:25.239Z,96608.87
2018-04-14T00:28:51.119Z,96613.06
2018-04-14T00:31:17.059Z,96605.48
2018-04-14T00:33:42.954Z,96610.73
2018-04-14T00:36:08.856Z,96612.07
2018-04-14T00:38:38.640Z,96614.42
2018-04-14T00:41:04.528Z,96610.56
2018-04-14T00:43:31.706Z,96614.59
2018-04-14T00:45:57.619Z,96616.23
2018-04-14T00:48:27.411Z,96619.00
2018-04-14T00:50:53.369Z,96616.75
2018-04-14T00:56:21.178Z,96612.19
2018-04-14T00:58:47.166Z,96615.98
2018-04-14T01:01:13.070Z,96615.17
2018-04-14T01:03:38.964Z,96617.80
2018-04-14T01:06:04.903Z,96617.89
2018-04-14T01:08:30.800Z,96617.58
2018-04-14T01:10:56.735Z,96608.28
2018-04-14T01:13:22.641Z,96617.90
2018-04-14T01:15:48.514Z,96615.66
2018-04-14T01:18:14.468Z,96610.70
2018-04-14T01:20:40.315Z,96614.67
2018-04-14T01:23:06.203Z,96621.30
2018-04-14T01:25:32.138Z,96616.47
2018-04-14T01:27:58.018Z,96625.09
2018-04-14T01:30:23.932Z,96625.02
2018-04-14T01:32:49.824Z,96630.44
2018-04-14T01:35:15.700Z,96631.74
2018-04-14T01:37:41.562Z,96639.29
2018-04-14T01:40:07.464Z,96632.16
2018-04-14T01:42:33.411Z,96637.80
2018-04-14T01:44:59.330Z,96634.02
2018-04-14T01:47:25.252Z,96621.74
2018-04-14T01:49:51.142Z,96626.58
2018-04-14T01:52:17.064Z,96632.01
2018-04-14T01:54:43.047Z,96628.82
2018-04-14T01:57:08.935Z,96617.98
2018-04-14T01:59:34.831Z,96632.19
2018-04-14T02:02:00.749Z,96632.17
2018-04-14T02:04:26.643Z,96631.34
2018-04-14T02:06:52.573Z,96640.42
2018-04-14T02:09:18.491Z,96633.93
2018-04-14T02:11:46.520Z,96639.33
2018-04-14T02:14:12.437Z,96635.94
2018-04-14T02:16:41.859Z,96633.59
2018-04-14T02:19:07.820Z,96627.60
2018-04-14T02:21:33.728Z,96630.39
2018-04-14T02:23:59.624Z,96626.75
2018-04-14T02:26:25.507Z,96631.27
2018-04-14T02:28:52.787Z,96637.49
2018-04-14T02:31:18.681Z,96626.34
2018-04-14T02:33:47.385Z,96632.81
2018-04-14T02:36:13.451Z,96633.94
2018-04-14T02:38:43.094Z,96639.92
2018-04-14T02:41:09.004Z,96643.93
2018-04-14T02:43:38.389Z,96640.67
2018-04-14T02:46:04.318Z,96641.12
2018-04-14T02:48:31.635Z,96636.98
2018-04-14T02:50:57.672Z,96637.16
2018-04-14T02:53:26.873Z,96632.52
2018-04-14T02:55:52.806Z,96635.09
2018-04-14T02:58:18.764Z,96632.15
2018-04-14T03:00:44.742Z,96629.92
2018-04-14T03:03:10.928Z,96636.59
2018-04-14T03:05:38.522Z,96636.31
2018-04-14T03:08:04.532Z,96640.32
2018-04-14T03:10:33.849Z,96635.92
2018-04-14T03:12:59.734Z,96644.23
2018-04-14T03:15:27.466Z,96647.55
2018-04-14T03:17:53.381Z,96643.47
2018-04-14T03:20:22.203Z,96647.49
2018-04-14T03:22:48.127Z,96646.30
2018-04-14T03:25:16.974Z,96646.44
2018-04-14T03:27:42.873Z,96646.99
2018-04-14T03:30:11.865Z,96651.19
2018-04-14T03:32:37.782Z,96653.14
2018-04-14T03:35:03.739Z,96658.16
2018-04-14T03:37:29.623Z,96653.45
2018-04-14T03:39:55.540Z,96650.73
2018-04-14T03:42:23.250Z,96657.05
2018-04-14T03:44:49.114Z,96663.88
2018-04-14T03:47:17.881Z,96661.72
2018-04-14T03:49:43.764Z,96649.00
2018-04-14T03:52:12.437Z,96666.86
2018-04-14T03:54:38.311Z,96669.67
2018-04-14T03:57:06.881Z,96667.67
2018-04-14T03:59:32.899Z,96670.05
2018-04-14T04:04:29.760Z,96674.82
2018-04-14T04:06:57.176Z,96676.34
2018-04-14T04:09:23.095Z,96676.70
2018-04-14T04:11:48.963Z,96677.30
2018-04-14T04:14:14.930Z,96687.29
2018-04-14T04:16:40.881Z,96687.18
2018-04-14T04:19:22.791Z,96696.02
2018-04-14T04:22:01.129Z,96690.60
2018-04-14T04:24:39.427Z,96707.62
2018-04-14T04:27:05.388Z,96712.64
2018-04-14T04:29:31.256Z,96706.45
2018-04-14T04:31:57.160Z,96704.73
2018-04-14T04:34:23.060Z,96710.31
2018-04-14T04:36:48.984Z,96717.88
2018-04-14T04:39:14.853Z,96717.22
2018-04-14T04:41:40.764Z,96715.37
2018-04-14T04:44:07.439Z,96711.34
2018-04-14T04:46:33.352Z,96721.55
2018-04-14T04:48:59.286Z,96721.27
2018-04-14T04:51:25.184Z,96724.92
2018-04-14T04:53:51.096Z,96728.50
2018-04-14T04:56:16.997Z,96733.45
2018-04-14T04:58:42.912Z,96738.46
2018-04-14T05:01:08.820Z,96744.93
2018-04-14T05:03:34.747Z,96744.06
2018-04-14T05:06:00.654Z,96751.88
2018-04-14T05:08:26.540Z,96745.67
2018-04-14T05:10:52.470Z,96758.02
2018-04-14T05:13:18.417Z,96760.94
2018-04-14T05:15:44.301Z,96761.02
2018-04-14T05:18:10.212Z,96760.02
2018-04-14T05:20:36.227Z,96761.79
2018-04-14T05:23:02.172Z,96758.16
2018-04-14T05:25:28.052Z,96755.42
2018-04-14T05:27:53.993Z,96761.55
2018-04-14T05:30:19.845Z,96760.73
2018-04-14T05:32:45.775Z,96756.63
2018-04-14T05:35:11.681Z,96753.24
2018-04-14T05:37:37.615Z,96760.52
2018-04-14T05:40:03.549Z,96753.14
2018-04-14T05:42:29.424Z,96756.38
2018-04-14T05:44:55.340Z,96764.83
2018-04-14T05:47:24.458Z,96760.95
2018-04-14T05:49:50.366Z,96765.30
2018-04-14T05:52:18.165Z,96767.16
2018-04-14T05:54:44.063Z,96767.19
2018-04-14T05:57:13.223Z,96782.61
2018-04-14T05:59:39.117Z,96788.05
2018-04-14T06:02:05.092Z,96788.09
2018-04-14T06:04:30.982Z,96790.84
2018-04-14T06:06:56.874Z,96781.70
2018-04-14T06:09:24.854Z,96799.31
2018-04-14T06:11:50.753Z,96793.63
2018-04-14T06:14:19.676Z,96775.84
2018-04-14T06:16:45.589Z,96804.09
2018-04-14T06:19:14.848Z,96798.14
2018-04-14T06:21:40.800Z,96798.00
2018-04-14T06:24:09.876Z,96802.52
2018-04-14T06:26:35.758Z,96803.30
2018-04-14T06:29:05.050Z,96806.95
2018-04-14T06:31:30.984Z,96811.98
2018-04-14T06:33:58.505Z,96812.89
2018-04-14T06:36:24.690Z,96825.50
2018-04-14T06:38:50.557Z,96821.16
2018-04-14T06:41:16.502Z,96825.11
2018-04-14T06:43:42.365Z,96831.57
2018-04-14T06:46:11.635Z,96828.00
2018-04-14T06:48:37.562Z,96828.97
2018-04-14T06:51:06.502Z,96827.19
2018-04-14T06:53:32.397Z,96799.41
2018-04-14T06:55:59.844Z,96831.58
2018-04-14T06:58:25.702Z,96834.67
2018-04-14T07:00:55.119Z,96836.28
2018-04-14T07:03:21.044Z,96828.22
2018-04-14T07:05:50.569Z,96832.59
2018-04-14T07:08:16.487Z,96839.75
2018-04-14T07:10:43.461Z,96841.38
2018-04-14T07:13:09.383Z,96835.55
2018-04-14T07:15:35.319Z,96832.19
2018-04-14T07:18:01.224Z,96828.36
2018-04-14T07:20:27.106Z,96831.42
2018-04-14T07:22:56.920Z,96843.17
2018-04-14T07:25:22.812Z,96844.17
2018-04-14T07:27:50.009Z,96842.17
2018-04-14T07:30:15.894Z,96850.32
2018-04-14T07:32:45.163Z,96841.03
2018-04-14T07:35:11.075Z,96843.22
2018-04-14T07:37:40.183Z,96836.19
2018-04-14T07:40:06.104Z,96829.78
2018-04-14T07:42:34.232Z,96833.79
2018-04-14T07:45:00.145Z,96836.58
2018-04-14T07:47:29.721Z,96842.42
2018-04-14T07:49:55.613Z,96840.72
2018-04-14T07:52:21.504Z,96837.40
2018-04-14T07:54:47.394Z,96848.73
2018-04-14T07:57:13.308Z,96850.45
2018-04-14T07:59:40.685Z,96854.34
2018-04-14T08:02:06.628Z,96845.53
2018-04-14T08:04:35.922Z,96845.03
2018-04-14T08:07:01.836Z,96837.88
2018-04-14T08:09:30.294Z,96840.27
2018-04-14T08:11:56.187Z,96842.88
2018-04-14T08:14:25.628Z,96842.62
2018-04-14T08:16:51.550Z,96841.97
2018-04-14T08:19:20.823Z,96847.36
2018-04-14T08:21:46.736Z,96843.45
2018-04-14T08:24:14.131Z,96848.66
2018-04-14T08:26:40.041Z,96852.19
2018-04-14T08:29:05.954Z,96852.28
2018-04-14T08:31:31.842Z,96848.22
2018-04-14T08:33:57.739Z,96854.68
2018-04-14T08:36:26.680Z,96858.01
2018-04-14T08:38:52.567Z,96847.49
2018-04-14T08:41:22.231Z,96859.23
2018-04-14T08:43:48.111Z,96854.72
2018-04-14T08:46:15.360Z,96854.11
2018-04-14T08:48:41.288Z,96856.70
2018-04-14T08:51:10.952Z,96854.94
2018-04-14T08:53:36.846Z,96857.34
2018-04-14T08:56:06.128Z,96858.79
2018-04-14T08:58:32.030Z,96858.28
2018-04-14T09:00:59.394Z,96857.53
2018-04-14T09:03:25.274Z,96853.45
2018-04-14T09:05:51.291Z,96842.38
2018-04-14T09:08:17.166Z,96851.00
2018-04-14T09:10:43.048Z,96850.80
2018-04-14T09:13:12.252Z,96853.25
2018-04-14T09:15:38.170Z,96856.99
2018-04-14T09:18:05.789Z,96829.94
2018-04-14T09:20:31.717Z,96856.31
2018-04-14T09:23:01.271Z,96856.10
2018-04-14T09:25:27.199Z,96860.05
2018-04-14T09:27:55.425Z,96857.67
2018-04-14T09:30:21.357Z,96854.49
2018-04-14T09:32:49.962Z,96843.72
2018-04-14T09:35:15.802Z,96849.27
2018-04-14T09:37:45.459Z,96842.34
2018-04-14T09:40:11.363Z,96848.08
2018-04-14T09:42:37.317Z,96843.61
2018-04-14T09:45:03.236Z,96837.14
2018-04-14T09:47:29.126Z,96838.31
2018-04-14T09:49:58.179Z,96833.66
2018-04-14T09:52:24.085Z,96827.45
2018-04-14T09:54:51.602Z,96818.41
2018-04-14T09:57:17.461Z,96825.17
2018-04-14T09:59:45.715Z,96834.37
2018-04-14T10:02:11.609Z,96819.33
2018-04-14T10:04:40.599Z,96820.03
2018-04-14T10:07:06.500Z,96827.30
2018-04-14T10:09:36.129Z,96824.95
2018-04-14T10:12:02.061Z,96822.38
2018-04-14T10:14:30.143Z,96820.50
2018-04-14T10:16:56.023Z,96825.78
2018-04-14T10:19:21.945Z,96823.73
2018-04-14T10:21:47.825Z,96822.95
2018-04-14T10:24:13.754Z,96820.30
2018-04-14T10:26:43.311Z,96818.39
2018-04-14T10:29:09.239Z,96809.23
2018-04-14T10:31:37.058Z,96808.03
2018-04-14T10:34:03.149Z,96805.38
2018-04-14T10:36:31.432Z,96804.23
2018-04-14T10:38:57.312Z,96802.73
2018-04-14T10:41:26.855Z,96802.56
2018-04-14T10:43:52.898Z,96800.87
2018-04-14T10:46:20.440Z,96794.98
2018-04-14T10:48:46.338Z,96787.27
2018-04-14T10:51:15.256Z,96783.52
2018-04-14T10:53:41.163Z,96785.05
2018-04-14T10:56:07.021Z,96788.22
2018-04-14T10:58:32.929Z,96783.73
2018-04-14T11:00:58.918Z,96788.23
2018-04-14T11:03:28.006Z,96786.02
2018-04-14T11:05:53.866Z,96789.42
2018-04-14T11:08:21.947Z,96792.11
2018-04-14T11:10:47.861Z,96795.80
2018-04-14T11:13:17.222Z,96794.34
2018-04-14T11:15:43.066Z,96803.03
2018-04-14T11:18:11.023Z,96799.06
2018-04-14T11:20:36.975Z,96802.66
2018-04-14T11:23:05.720Z,96797.16
2018-04-14T11:25:31.677Z,96802.36
2018-04-14T11:28:00.755Z,96799.98
2018-04-14T11:30:26.664Z,96799.81
2018-04-14T11:32:52.569Z,96785.81
2018-04-14T11:35:18.468Z,96784.25
2018-04-14T11:37:44.388Z,96795.45
2018-04-14T11:40:12.217Z,96784.39
2018-04-14T11:42:38.117Z,96791.55
2018-04-14T11:45:10.919Z,96790.56
2018-04-14T11:47:36.834Z,96783.63
2018-04-14T11:50:02.773Z,96793.45
2018-04-14T11:52:28.618Z,96783.27
2018-04-14T11:54:56.683Z,96790.39
2018-04-14T11:57:22.616Z,96788.36
2018-04-14T11:59:51.834Z,96794.23
2018-04-14T12:02:17.799Z,96799.22
2018-04-14T12:04:46.744Z,96802.97
2018-04-14T12:07:12.674Z,96797.68
2018-04-14T12:09:38.570Z,96806.30
2018-04-14T12:12:04.483Z,96805.81
2018-04-14T12:14:30.419Z,96800.13
2018-04-14T12:16:57.794Z,96803.10
2018-04-14T12:19:23.731Z,96802.41
2018-04-14T12:21:53.029Z,96801.49
2018-04-14T12:24:18.950Z,96810.64
2018-04-14T12:26:48.507Z,96808.86
2018-04-14T12:29:14.412Z,96817.94
2018-04-14T12:31:41.747Z,96819.50
2018-04-14T12:34:07.643Z,96822.71
2018-04-14T12:36:36.867Z,96827.58
2018-04-14T12:39:02.803Z,96831.86
2018-04-14T12:41:32.084Z,96826.70
2018-04-14T12:43:58.033Z,96836.14
2018-04-14T12:46:23.935Z,96830.08
2018-04-14T12:48:49.868Z,96827.48
2018-04-14T12:51:15.822Z,96825.56
2018-04-14T12:53:42.720Z,96829.94
2018-04-14T12:56:08.610Z,96828.70
2018-04-14T12:58:37.960Z,96835.08
2018-04-14T13:01:03.859Z,96819.37
2018-04-14T13:03:33.298Z,96824.83
2018-04-14T13:05:59.204Z,96825.41
2018-04-14T13:08:28.599Z,96814.32
2018-04-14T13:10:54.523Z,96805.19
2018-04-14T13:13:21.578Z,96799.63
2018-04-14T13:15:47.463Z,96789.25
2018-04-14T13:18:16.666Z,96793.66
2018-04-14T13:20:42.600Z,96793.47
2018-04-14T13:23:08.491Z,96788.31
2018-04-14T13:25:34.378Z,96784.05
2018-04-14T13:28:00.262Z,96777.91
2018-04-14T13:30:28.353Z,96774.59
2018-04-14T13:32:54.243Z,96782.91
2018-04-14T13:35:23.644Z,96753.69
2018-04-14T13:37:49.554Z,96765.61
2018-04-14T13:40:17.639Z,96774.12
2018-04-14T13:42:43.528Z,96767.09
2018-04-14T13:45:12.881Z,96764.61
2018-04-14T13:47:38.781Z,96751.63
2018-04-14T13:50:08.111Z,96738.76
2018-04-14T13:52:34.007Z,96734.70
2018-04-14T13:55:03.520Z,96734.61
2018-04-14T13:57:29.431Z,96725.92
2018-04-14T13:59:55.367Z,96720.15
2018-04-14T14:02:21.292Z,96714.45
2018-04-14T14:04:47.171Z,96709.11
2018-04-14T14:07:14.228Z,96705.23
2018-04-14T14:09:40.137Z,96712.38
2018-04-14T14:12:09.329Z,96712.84
2018-04-14T14:14:35.431Z,96702.85
2018-04-14T14:17:04.456Z,96698.51
2018-04-14T14:19:30.359Z,96691.44
2018-04-14T14:21:57.349Z,96684.35
2018-04-14T14:24:23.240Z,96681.56
2018-04-14T14:26:51.995Z,96680.77
2018-04-14T14:29:17.868Z,96677.30
2018-04-14T14:31:46.659Z,96669.77
2018-04-14T14:34:12.579Z,96664.86
2018-04-14T14:36:38.452Z,96660.33
2018-04-14T14:39:04.403Z,96660.82
2018-04-14T14:41:30.316Z,96661.30
2018-04-14T14:43:59.056Z,96653.48
2018-04-14T14:46:24.992Z,96647.37
2018-04-14T14:48:54.016Z,96645.13
2018-04-14T14:51:19.931Z,96651.58
2018-04-14T14:53:49.087Z,96635.25
2018-04-14T14:56:14.992Z,96646.13
2018-04-14T14:58:43.203Z,96658.27
2018-04-14T15:01:09.097Z,96652.59
2018-04-14T15:03:38.312Z,96654.77
2018-04-14T15:06:04.192Z,96655.58
2018-04-14T15:08:32.500Z,96654.30
2018-04-14T15:10:58.455Z,96655.51
2018-04-14T15:13:24.364Z,96656.45
2018-04-14T15:15:50.252Z,96656.06
2018-04-14T15:18:16.167Z,96652.60
2018-04-14T15:20:45.743Z,96646.56
2018-04-14T15:23:11.627Z,96652.43
2018-04-14T15:25:38.845Z,96651.75
2018-04-14T15:28:04.725Z,96644.09
2018-04-14T15:30:34.552Z,96637.80
2018-04-14T15:33:00.424Z,96645.04
2018-04-14T15:35:29.870Z,96641.14
2018-04-14T15:37:55.791Z,96633.08
2018-04-14T15:40:23.044Z,96640.91
2018-04-14T15:42:48.971Z,96645.48
2018-04-14T15:45:18.228Z,96640.18
2018-04-14T15:47:44.281Z,96638.69
2018-04-14T15:50:10.210Z,96632.66
2018-04-14T15:52:36.138Z,96633.97
2018-04-14T15:55:02.040Z,96637.27
2018-04-14T15:57:30.033Z,96635.28
2018-04-14T15:59:55.948Z,96632.15
2018-04-14T16:02:23.848Z,96634.73
2018-04-14T16:04:49.765Z,96628.69
2018-04-14T16:07:18.547Z,96629.44
2018-04-14T16:09:44.452Z,96629.63
2018-04-14T16:12:13.459Z,96629.03
2018-04-14T16:14:40.773Z,96632.89
2018-04-14T16:17:08.183Z,96621.44
2018-04-14T16:19:34.098Z,96629.20
2018-04-14T16:22:03.240Z,96622.16
2018-04-14T16:24:29.094Z,96623.01
2018-04-14T16:26:54.994Z,96624.84
2018-04-14T16:29:20.879Z,96628.94
2018-04-14T16:31:46.803Z,96630.04
2018-04-14T16:34:16.427Z,96631.23
2018-04-14T16:36:42.311Z,96623.72
2018-04-14T16:39:09.188Z,96626.58
2018-04-14T16:41:35.964Z,96622.63
2018-04-14T16:44:03.748Z,96622.65
2018-04-14T16:46:29.667Z,96623.94
2018-04-14T16:48:58.540Z,96623.25
2018-04-14T16:51:24.456Z,96621.52
2018-04-14T16:53:53.408Z,96619.30
2018-04-14T16:56:19.368Z,96619.44
2018-04-14T16:58:48.313Z,96613.81
2018-04-14T17:01:14.208Z,96616.87
2018-04-14T17:03:40.199Z,96609.98
2018-04-14T17:06:06.173Z,96616.08
2018-04-14T17:08:32.056Z,96618.69
2018-04-14T17:10:59.991Z,96622.08
2018-04-14T17:13:25.920Z,96624.43
2018-04-14T17:15:54.843Z,96630.34
2018-04-14T17:18:20.740Z,96629.20
2018-04-14T17:20:49.772Z,96619.00
2018-04-14T17:23:15.687Z,96614.19
2018-04-14T17:25:45.607Z,96606.53
2018-04-14T17:28:11.524Z,96599.76
2018-04-14T17:30:38.717Z,96597.34
2018-04-14T17:33:04.628Z,96596.77
2018-04-14T17:35:33.750Z,96598.12
2018-04-14T17:37:59.651Z,96599.01
2018-04-14T17:40:25.571Z,96593.98
2018-04-14T17:42:51.503Z,96596.52
2018-04-14T17:45:17.382Z,96598.65
2018-04-14T17:47:45.219Z,96603.52
2018-04-14T17:50:11.129Z,96603.66
2018-04-14T17:52:40.048Z,96608.41
2018-04-14T17:55:05.951Z,96611.07
2018-04-14T17:57:35.552Z,96612.14
2018-04-14T18:00:01.455Z,96613.14
2018-04-14T18:05:22.456Z,96615.72
2018-04-14T18:07:48.343Z,96606.30
2018-04-14T18:10:14.280Z,96621.23
2018-04-14T18:12:40.311Z,96616.58
2018-04-14T18:15:06.198Z,96624.85
2018-04-14T18:17:32.107Z,96622.42
2018-04-14T18:19:57.990Z,96623.95
2018-04-14T18:22:23.922Z,96630.88
2018-04-14T18:24:49.898Z,96615.61
2018-04-14T18:27:15.840Z,96630.92
2018-04-14T18:29:41.762Z,96629.44
2018-04-14T18:32:07.656Z,96627.19
2018-04-14T18:34:33.592Z,96631.02
2018-04-14T18:36:59.788Z,96632.80
2018-04-14T18:39:25.686Z,96638.30
2018-04-14T18:41:51.604Z,96639.78
2018-04-14T18:44:17.517Z,96642.72
2018-04-14T18:46:43.447Z,96644.16
2018-04-14T18:49:09.327Z,96654.78
2018-04-14T18:51:35.253Z,96652.97
2018-04-14T18:54:01.152Z,96648.77
2018-04-14T18:56:27.047Z,96647.37
2018-04-14T18:58:53.009Z,96650.75
2018-04-14T19:01:18.907Z,96649.88
2018-04-14T19:03:44.850Z,96653.73
2018-04-14T19:06:10.727Z,96650.38
2018-04-14T19:08:36.603Z,96650.45
2018-04-14T19:11:06.104Z,96654.94
2018-04-14T19:13:32.081Z,96651.64
2018-04-14T19:16:00.646Z,96653.41
2018-04-14T19:18:26.605Z,96655.34
2018-04-14T19:20:55.787Z,96659.42
2018-04-14T19:23:21.666Z,96652.70
2018-04-14T19:25:50.973Z,96666.37
2018-04-14T19:28:16.958Z,96654.13
2018-04-14T19:30:42.856Z,96658.99
2018-04-14T19:33:08.766Z,96670.03
2018-04-14T19:35:35.210Z,96670.03
2018-04-14T19:38:01.119Z,96633.52
2018-04-14T19:40:27.032Z,96670.80
2018-04-14T19:42:56.037Z,96664.63
2018-04-14T19:45:21.980Z,96656.05
2018-04-14T19:47:51.079Z,96657.38
2018-04-14T19:50:16.964Z,96660.91
2018-04-14T19:52:46.094Z,96650.14
2018-04-14T19:55:12.015Z,96647.16
2018-04-14T20:00:29.442Z,96652.41
2018-04-14T20:02:58.713Z,96647.09
2018-04-14T20:05:24.908Z,96639.59
2018-04-14T20:07:50.806Z,96643.17
2018-04-14T20:10:16.682Z,96639.37
2018-04-14T20:12:42.609Z,96641.95
2018-04-14T20:15:08.499Z,96644.52
2018-04-14T20:17:34.407Z,96643.28
2018-04-14T20:20:00.377Z,96640.94
2018-04-14T20:22:26.322Z,96643.39
2018-04-14T20:24:52.279Z,96632.13
2018-04-14T20:27:18.171Z,96628.55
2018-04-14T20:29:44.076Z,96624.73
2018-04-14T20:32:09.964Z,96615.09
2018-04-14T20:34:35.852Z,96621.62
2018-04-14T20:37:01.724Z,96619.35
2018-04-14T20:39:27.593Z,96620.91
2018-04-14T20:41:53.591Z,96619.42
2018-04-14T20:44:19.469Z,96623.47
2018-04-14T20:46:45.409Z,96628.88
2018-04-14T20:49:11.343Z,96617.14
2018-04-14T20:51:37.211Z,96619.84
2018-04-14T20:54:03.141Z,96617.77
2018-04-14T20:56:29.009Z,96604.45
2018-04-14T20:58:54.904Z,96597.50
2018-04-14T21:01:20.934Z,96593.58
2018-04-14T21:03:46.788Z,96596.38
2018-04-14T21:06:15.685Z,96588.52
2018-04-14T21:08:41.550Z,96591.97
2018-04-14T21:11:10.077Z,96598.44
2018-04-14T21:13:36.024Z,96597.56
2018-04-14T21:16:04.973Z,96591.12
2018-04-14T21:18:30.876Z,96593.81
2018-04-14T21:20:56.773Z,96586.91
2018-04-14T21:23:22.681Z,96561.25
2018-04-14T21:25:48.642Z,96576.24
2018-04-14T21:28:17.917Z,96572.78
2018-04-14T21:30:43.867Z,96570.41
2018-04-14T21:33:11.532Z,96568.93
2018-04-14T21:35:37.484Z,96562.56
2018-04-14T21:38:06.346Z,96561.25
2018-04-14T21:40:32.225Z,96544.39
2018-04-14T21:43:01.592Z,96558.41
2018-04-14T21:45:27.464Z,96556.08
2018-04-14T21:47:55.988Z,96564.81
2018-04-14T21:50:21.907Z,96553.06
2018-04-14T21:52:50.839Z,96557.23
2018-04-14T21:55:16.786Z,96547.09
2018-04-14T21:57:42.692Z,96548.99
2018-04-14T22:00:08.639Z,96544.11
2018-04-14T22:02:34.529Z,96548.38
2018-04-14T22:05:03.690Z,96548.91
2018-04-14T22:07:29.642Z,96547.70
2018-04-14T22:09:57.579Z,96547.69
2018-04-14T22:12:23.478Z,96547.21
2018-04-14T22:14:52.576Z,96536.38
2018-04-14T22:17:18.542Z,96538.75
2018-04-14T22:19:46.216Z,96537.88
2018-04-14T22:22:12.116Z,96543.88
2018-04-14T22:24:40.715Z,96548.16
2018-04-14T22:27:06.632Z,96552.73
2018-04-14T22:29:35.388Z,96546.22
2018-04-14T22:32:01.259Z,96543.80
2018-04-14T22:34:27.177Z,96535.70
2018-04-14T22:36:53.076Z,96535.74
2018-04-14T22:39:18.976Z,96539.42
2018-04-14T22:41:48.542Z,96536.62
2018-04-14T22:44:14.502Z,96541.27
2018-04-14T22:46:42.129Z,96540.02
2018-04-14T22:49:08.058Z,96544.20
2018-04-14T22:51:36.749Z,96545.86
2018-04-14T22:54:02.716Z,96542.86
2018-04-14T22:56:31.615Z,96543.60
2018-04-14T22:58:57.527Z,96540.19
2018-04-14T23:01:27.280Z,96530.34
2018-04-14T23:03:53.177Z,96534.06
2018-04-14T23:06:20.952Z,96536.06
2018-04-14T23:08:46.891Z,96533.45
2018-04-14T23:11:12.815Z,96529.08
2018-04-14T23:13:38.940Z,96532.02
2018-04-14T23:16:04.888Z,96531.13
2018-04-14T23:18:32.997Z,96524.31
2018-04-14T23:20:58.898Z,96521.47
2018-04-14T23:23:27.718Z,96520.31
2018-04-14T23:25:53.620Z,96514.80
2018-04-14T23:28:22.087Z,96517.66
2018-04-14T23:30:48.022Z,96509.31
2018-04-14T23:33:16.701Z,96514.70
2018-04-14T23:35:42.596Z,96507.03
2018-04-14T23:38:11.437Z,96504.30
2018-04-14T23:40:37.330Z,96499.99
2018-04-14T23:43:06.287Z,96499.08
2018-04-14T23:45:32.179Z,96489.75
2018-04-14T23:47:58.096Z,96485.64
2018-04-14T23:50:24.149Z,96482.77
2018-04-14T23:52:50.072Z,96475.00
2018-04-14T23:55:19.115Z,96481.62
2018-04-14T23:57:45.034Z,96476.06
